CST,Max TemperatureF,Mean TemperatureF,Min TemperatureF,Max Dew PointF,MeanDew PointF,Min DewpointF,Max Humidity, Mean Humidity, Min Humidity, Max Sea Level PressureIn, Mean Sea Level PressureIn, Min Sea Level PressureIn, Max VisibilityMiles, Mean VisibilityMiles, Min VisibilityMiles, Max Wind SpeedMPH, Mean Wind SpeedMPH, Max Gust SpeedMPH,PrecipitationIn, CloudCover, Events, WindDirDegrees
2013-11-1,64,51,37,28,25,22,58,41,22,30.27,30.04,29.82,10,10,10,22,11,32,0.00,0,,349
2013-11-2,67,47,27,26,23,19,75,45,20,30.38,30.25,30.11,10,10,10,20,7,29,0.00,0,,222
2013-11-3,70,55,40,39,29,24,72,41,17,30.10,29.93,29.77,10,10,10,26,15,33,0.00,0,,197
2013-11-4,61,49,37,44,35,32,91,62,34,30.03,29.94,29.84,10,10,10,23,11,29,0.00,1,Thunderstorm,90
2013-11-5,70,54,38,51,42,29,89,65,26,30.19,29.97,29.88,10,10,3,25,14,32,0.00,4,Thunderstorm,225
2013-11-6,58,40,23,29,19,14,86,49,19,30.37,30.30,30.19,10,10,7,13,6,17,0.00,0,,267
2013-11-7,57,40,22,23,17,12,73,51,24,30.47,30.38,30.32,10,10,7,20,7,29,0.03,0,,210
2013-11-8,52,42,36,19,18,15,50,41,23,30.32,30.11,29.96,10,10,10,25,14,33,0.00,0,,208
2013-11-9,46,40,33,40,33,27,89,78,50,30.24,30.08,29.95,10,10,10,17,9,22,0.00,0,,345
2013-11-10,47,38,30,43,31,25,91,84,74,30.35,30.27,30.22,10,9,0,12,5,,0.00,2,Fog,115
2013-11-11,43,38,32,40,34,30,94,90,75,30.50,30.26,30.19,10,9,3,26,7,33,0.00,1,,301
2013-11-12,44,35,26,32,25,17,96,72,37,30.75,30.66,30.52,10,9,3,29,17,34,0.00,4,Rain,19
2013-11-13,61,43,25,32,25,19,86,61,34,30.60,30.39,30.18,10,10,10,22,11,30,0.00,0,,207
2013-11-14,58,46,32,36,26,20,69,51,38,30.18,30.00,29.90,10,10,7,18,10,21,0.00,0,,274
2013-11-15,70,48,27,42,29,22,80,53,17,29.97,29.84,29.72,10,10,5,26,10,33,0.00,0,,223
2013-11-16,66,59,52,43,38,30,66,48,30,29.73,29.67,29.60,10,10,5,36,17,48,0.00,1,,226
2013-11-17,67,56,45,30,27,19,50,38,21,30.12,29.89,29.70,10,10,2,28,13,33,0.00,0,,242
2013-11-18,56,44,32,29,19,11,65,37,18,30.29,30.19,30.13,10,10,10,17,8,21,0.00,0,,138
2013-11-19,65,50,36,35,26,17,53,44,29,30.16,29.97,29.84,10,10,10,24,10,33,0.00,0,,205
2013-11-20,64,52,40,36,33,28,69,47,27,29.90,29.86,29.81,10,10,5,15,9,18,0.00,3,,236
2013-11-21,60,42,23,39,29,13,81,65,41,30.40,30.11,29.90,10,10,7,30,12,37,0.00,5,,337
2013-11-22,25,24,22,21,16,11,87,71,59,30.57,30.50,30.40,10,10,7,30,23,39,0.00,8,,7
2013-11-23,28,26,24,24,23,19,91,85,71,30.62,30.57,30.53,10,7,1,20,12,24,0.07,8,Snow,15
2013-11-24,28,26,24,25,23,22,92,87,80,30.57,30.36,30.11,10,6,0,18,6,25,0.17,8,Snow,155
2013-11-25,33,26,19,26,24,17,90,84,72,30.26,30.10,30.00,10,10,4,24,16,33,0.00,7,,309
2013-11-26,39,28,18,31,24,16,91,80,64,30.40,30.34,30.25,10,10,10,15,9,,0.00,0,,318
2013-11-27,48,34,20,35,27,17,90,77,58,30.40,30.28,30.20,10,10,10,15,6,20,0.00,0,,210
2013-11-28,51,39,27,34,30,24,90,72,45,30.32,30.23,30.17,10,10,10,14,8,18,0.00,0,,197
2013-11-29,60,44,27,39,33,24,91,70,39,30.32,30.26,30.17,10,10,10,24,8,28,0.00,0,,213
2013-11-30,60,46,32,40,35,30,90,77,42,30.23,30.17,30.11,10,10,10,10,6,,0.00,0,,241